Time;durP1;ratioP1;P1;durP2;ratioP2;P2;SDS_P1;SDS_P2;PMS_P1;PMS_P2;Temp;Humidity;BMP_temperature;BMP_pressure;BME280_temperature;BME280_humidity;BME280_pressure;Samples;Min_cycle;Max_cycle;Signal;HPM_P1;HPM_P2
2023/05/01 00:00:08;;;;;;;11.80;4.60;;;8.50;99.90;;;;;;5055270;28;20094;-63
2023/05/01 00:02:35;;;;;;;7.13;3.72;;;8.50;99.90;;;;;;5055619;28;20052;-63
2023/05/01 00:05:01;;;;;;;7.88;4.57;;;8.50;99.90;;;;;;5054682;28;20554;-63
2023/05/01 00:07:30;;;;;;;9.32;4.60;;;8.50;99.90;;;;;;5054575;28;20402;-63
2023/05/01 00:09:59;;;;;;;9.20;4.63;;;8.50;99.90;;;;;;5054480;28;20421;-63
2023/05/01 00:12:25;;;;;;;7.50;4.60;;;8.50;99.90;;;;;;5055200;28;20402;-63
2023/05/01 00:14:53;;;;;;;9.05;4.28;;;8.50;99.90;;;;;;5055080;28;20044;-63
2023/05/01 00:17:19;;;;;;;15.18;4.60;;;8.50;99.90;;;;;;5054106;28;20120;-63
2023/05/01 00:19:44;;;;;;;8.82;4.82;;;8.50;99.90;;;;;;5054312;28;20128;-63
2023/05/01 00:22:10;;;;;;;10.13;5.20;;;8.50;99.90;;;;;;5053701;28;20037;-63
2023/05/01 00:24:36;;;;;;;9.15;4.90;;;8.50;99.90;;;;;;5037061;28;20124;-63
2023/05/01 00:27:02;;;;;;;8.27;4.43;;;8.40;99.90;;;;;;5054371;28;20498;-63
2023/05/01 00:29:28;;;;;;;12.32;4.60;;;8.40;99.90;;;;;;5054385;28;20044;-63
2023/05/01 00:31:54;;;;;;;10.38;5.30;;;8.40;99.90;;;;;;5054205;28;20039;-63
2023/05/01 00:34:20;;;;;;;11.43;4.82;;;8.40;99.90;;;;;;5053625;28;20500;-63
2023/05/01 00:36:46;;;;;;;8.82;4.80;;;8.40;99.90;;;;;;5036887;28;20037;-63
2023/05/01 00:39:11;;;;;;;8.45;4.00;;;8.40;99.90;;;;;;5053839;28;20405;-63
2023/05/01 00:41:37;;;;;;;8.68;4.97;;;8.30;99.90;;;;;;5053759;28;20041;-63
2023/05/01 00:44:03;;;;;;;9.65;4.88;;;8.30;99.90;;;;;;5054163;28;20036;-63
2023/05/01 00:46:30;;;;;;;7.43;4.05;;;8.30;99.90;;;;;;5053633;28;20044;-63
2023/05/01 00:48:58;;;;;;;10.48;4.32;;;8.30;99.90;;;;;;5036493;28;20045;-63
2023/05/01 00:51:27;;;;;;;8.73;4.50;;;8.30;99.90;;;;;;5053545;28;20044;-63
2023/05/01 00:53:54;;;;;;;8.70;4.20;;;8.30;99.90;;;;;;5055034;28;20081;-63
2023/05/01 00:56:21;;;;;;;8.85;4.68;;;8.20;99.90;;;;;;5052676;28;20458;-63
2023/05/01 00:58:51;;;;;;;9.52;4.97;;;8.20;99.90;;;;;;5053520;28;20053;-63
2023/05/01 01:01:16;;;;;;;9.32;4.80;;;8.20;99.90;;;;;;5036780;28;20067;-63
2023/05/01 01:03:42;;;;;;;10.02;4.82;;;8.20;99.90;;;;;;5051791;28;20068;-63
2023/05/01 01:06:19;;;;;;;8.60;4.78;;;8.20;99.90;;;;;;5053716;28;20045;-63
2023/05/01 01:08:56;;;;;;;9.43;5.03;;;8.20;99.90;;;;;;5054417;28;20048;-63
2023/05/01 01:11:37;;;;;;;11.50;5.28;;;8.20;99.90;;;;;;5051958;28;20057;-63
2023/05/01 01:14:18;;;;;;;11.35;5.47;;;8.10;99.90;;;;;;5054798;28;20116;-63
2023/05/01 01:17:00;;;;;;;10.65;5.38;;;8.10;99.90;;;;;;5053569;28;20087;-63
2023/05/01 01:19:48;;;;;;;12.00;5.32;;;8.10;99.90;;;;;;5069440;28;20515;-63
2023/05/01 01:22:19;;;;;;;10.02;5.53;;;8.10;99.90;;;;;;5054657;28;20044;-63
2023/05/01 01:24:57;;;;;;;10.68;5.47;;;8.00;99.90;;;;;;5069214;28;20036;-63
2023/05/01 01:28:00;;;;;;;9.15;4.32;;;8.00;99.90;;;;;;5049368;28;20394;-63
2023/05/01 01:30:26;;;;;;;9.18;4.57;;;8.00;99.90;;;;;;5032696;28;20076;-63
2023/05/01 01:33:13;;;;;;;10.60;4.70;;;8.00;99.90;;;;;;5032833;28;20127;-63
2023/05/01 01:35:45;;;;;;;8.80;5.25;;;7.90;99.90;;;;;;5033833;28;20049;-63
2023/05/01 01:38:22;;;;;;;8.80;5.40;;;7.90;99.90;;;;;;5037601;28;20045;-63
2023/05/01 01:40:55;;;;;;;10.20;4.68;;;7.90;99.90;;;;;;5053250;28;20135;-63
2023/05/01 01:43:23;;;;;;;10.18;5.20;;;7.90;99.90;;;;;;5052415;28;20052;-63
2023/05/01 01:45:58;;;;;;;10.73;5.65;;;7.90;99.90;;;;;;5053277;28;20504;-63
2023/05/01 01:48:29;;;;;;;9.50;5.53;;;7.80;99.90;;;;;;5052014;28;20049;-63
2023/05/01 01:50:58;;;;;;;9.52;5.43;;;7.80;99.90;;;;;;5053188;28;20427;-63
2023/05/01 01:53:27;;;;;;;10.55;5.88;;;7.80;99.90;;;;;;5051405;28;20041;-63
2023/05/01 01:55:55;;;;;;;9.10;5.75;;;7.80;99.90;;;;;;5053049;28;20075;-63
2023/05/01 01:58:25;;;;;;;8.45;5.10;;;7.80;99.90;;;;;;5035682;28;20440;-63
2023/05/01 02:00:54;;;;;;;10.25;4.75;;;7.80;99.90;;;;;;5051952;28;20398;-63
2023/05/01 02:03:21;;;;;;;10.15;5.32;;;7.80;99.90;;;;;;5053052;28;20037;-63
2023/05/01 02:05:49;;;;;;;9.25;4.80;;;7.70;99.90;;;;;;5069292;28;20600;-63
2023/05/01 02:08:16;;;;;;;9.13;5.03;;;7.70;99.90;;;;;;5053081;28;20482;-63
2023/05/01 02:10:44;;;;;;;9.15;5.25;;;7.70;99.90;;;;;;5052032;28;20093;-63
2023/05/01 02:13:11;;;;;;;8.88;5.07;;;7.70;99.90;;;;;;5052654;28;20152;-63
2023/05/01 02:15:39;;;;;;;9.27;5.47;;;7.70;99.90;;;;;;5051945;28;20048;-63
2023/05/01 02:18:06;;;;;;;9.77;5.57;;;7.70;99.90;;;;;;5053593;28;20041;-63
2023/05/01 02:20:32;;;;;;;10.63;5.30;;;7.70;99.90;;;;;;5052309;28;20047;-63
2023/05/01 02:22:58;;;;;;;10.02;5.18;;;7.70;99.90;;;;;;5035497;28;20047;-63
2023/05/01 02:25:26;;;;;;;12.52;6.78;;;7.70;99.90;;;;;;5051498;28;20036;-63
2023/05/01 02:27:58;;;;;;;10.27;5.60;;;7.70;99.90;;;;;;5051537;28;20045;-63
2023/05/01 02:30:24;;;;;;;10.55;5.32;;;7.70;99.90;;;;;;5051531;28;20049;-63
2023/05/01 02:32:50;;;;;;;12.35;5.70;;;7.70;99.90;;;;;;5052123;28;20041;-63
2023/05/01 02:35:17;;;;;;;11.40;5.10;;;7.70;99.90;;;;;;5050942;28;20045;-63
2023/05/01 02:37:43;;;;;;;11.18;5.38;;;7.70;99.90;;;;;;5051753;28;20041;-63
2023/05/01 02:40:13;;;;;;;10.07;5.18;;;7.70;99.90;;;;;;5051584;28;20116;-63
2023/05/01 02:42:42;;;;;;;9.75;5.10;;;7.60;99.90;;;;;;5034055;28;20414;-63
2023/05/01 02:45:13;;;;;;;10.77;6.20;;;7.70;99.90;;;;;;5053038;28;20068;-63
2023/05/01 02:47:41;;;;;;;11.60;5.53;;;7.60;99.90;;;;;;5052238;28;20045;-63
2023/05/01 02:50:07;;;;;;;12.50;5.78;;;7.60;99.90;;;;;;5052035;28;20033;-63
2023/05/01 02:52:35;;;;;;;9.25;5.28;;;7.60;99.90;;;;;;5052306;28;20040;-61
2023/05/01 02:55:01;;;;;;;10.48;5.40;;;7.60;99.90;;;;;;5034799;28;20505;-61
2023/05/01 02:57:27;;;;;;;11.27;6.38;;;7.60;99.90;;;;;;5050335;28;20103;-61
2023/05/01 02:59:52;;;;;;;12.45;5.70;;;7.60;99.90;;;;;;5051467;28;20041;-61
2023/05/01 03:02:18;;;;;;;9.20;5.50;;;7.50;99.90;;;;;;5034049;28;20094;-61
2023/05/01 03:04:44;;;;;;;14.60;5.75;;;7.50;99.90;;;;;;5051065;28;20037;-61
2023/05/01 03:07:09;;;;;;;9.90;5.38;;;7.50;99.90;;;;;;5034987;28;20041;-61
2023/05/01 03:09:35;;;;;;;9.63;5.63;;;7.50;99.90;;;;;;5051076;28;20155;-61
2023/05/01 03:12:01;;;;;;;10.40;5.63;;;7.50;99.90;;;;;;5051325;28;20041;-61
2023/05/01 03:14:27;;;;;;;9.65;5.40;;;7.50;99.90;;;;;;5034239;28;20051;-61
2023/05/01 03:16:53;;;;;;;10.30;5.75;;;7.50;99.90;;;;;;5033753;28;20095;-61
2023/05/01 03:19:19;;;;;;;10.70;5.57;;;7.40;99.90;;;;;;5050795;28;20049;-61
2023/05/01 03:21:45;;;;;;;8.63;4.35;;;7.40;99.90;;;;;;5034723;28;20047;-61
2023/05/01 03:24:10;;;;;;;10.85;5.38;;;7.40;99.90;;;;;;5050435;28;20045;-61
2023/05/01 03:26:36;;;;;;;8.73;4.95;;;7.30;99.90;;;;;;5050037;28;20036;-61
2023/05/01 03:29:02;;;;;;;9.70;4.95;;;7.30;99.90;;;;;;5050967;28;20052;-61
2023/05/01 03:31:28;;;;;;;11.45;4.90;;;7.30;99.90;;;;;;5049895;28;20056;-61
2023/05/01 03:33:53;;;;;;;11.05;5.47;;;7.20;99.90;;;;;;5051241;28;20470;-61
2023/05/01 03:36:21;;;;;;;8.18;4.68;;;7.20;99.90;;;;;;5052430;28;20450;-61
2023/05/01 03:38:47;;;;;;;10.15;5.18;;;7.20;99.90;;;;;;5051098;28;20049;-61
2023/05/01 03:41:12;;;;;;;9.93;5.03;;;7.10;99.90;;;;;;5051087;28;20105;-61
2023/05/01 03:43:38;;;;;;;10.73;5.55;;;7.10;99.90;;;;;;5034008;28;20050;-61
2023/05/01 03:46:04;;;;;;;10.98;5.50;;;7.10;99.90;;;;;;5050070;28;20037;-61
2023/05/01 03:48:30;;;;;;;9.45;5.28;;;7.10;99.90;;;;;;5050100;28;20048;-61
2023/05/01 03:50:57;;;;;;;9.85;5.35;;;7.00;99.90;;;;;;5051967;28;20041;-61
2023/05/01 03:53:23;;;;;;;9.07;5.13;;;7.00;99.90;;;;;;5050560;28;20397;-61
2023/05/01 03:55:48;;;;;;;8.27;5.20;;;7.00;99.90;;;;;;5050747;28;20052;-61
2023/05/01 03:58:14;;;;;;;12.18;5.55;;;7.00;99.90;;;;;;5034123;28;20049;-61
2023/05/01 04:00:40;;;;;;;9.77;4.95;;;6.90;99.90;;;;;;5049803;28;20478;-61
2023/05/01 04:03:06;;;;;;;10.65;5.70;;;6.90;99.90;;;;;;5034465;28;20465;-61
2023/05/01 04:05:32;;;;;;;10.55;5.28;;;6.90;99.90;;;;;;5049407;28;20124;-61
2023/05/01 04:07:58;;;;;;;9.82;5.35;;;6.90;99.90;;;;;;5050429;28;20132;-61
2023/05/01 04:10:24;;;;;;;10.80;5.07;;;6.90;99.90;;;;;;5051075;28;20140;-61
2023/05/01 04:12:49;;;;;;;9.95;5.13;;;6.90;99.90;;;;;;5049783;28;20049;-61
2023/05/01 04:15:15;;;;;;;8.82;5.00;;;6.80;99.90;;;;;;5051769;28;20039;-61
2023/05/01 04:17:42;;;;;;;8.52;5.10;;;6.80;99.90;;;;;;5050318;28;20046;-61
2023/05/01 04:20:09;;;;;;;10.57;5.30;;;6.80;99.90;;;;;;5033218;28;20037;-61
2023/05/01 04:22:35;;;;;;;9.93;5.25;;;6.80;99.90;;;;;;5049903;28;20398;-61
2023/05/01 04:25:01;;;;;;;10.48;5.82;;;6.80;99.90;;;;;;5050388;28;20037;-61
2023/05/01 04:27:27;;;;;;;9.80;4.88;;;6.80;99.90;;;;;;5050261;28;20048;-61
2023/05/01 04:29:52;;;;;;;9.93;5.65;;;6.80;99.90;;;;;;5051814;28;20045;-61
2023/05/01 04:32:18;;;;;;;8.77;4.95;;;6.80;99.90;;;;;;5050051;28;20041;-61
2023/05/01 04:34:44;;;;;;;10.50;4.90;;;6.80;99.90;;;;;;5049351;28;20080;-61
2023/05/01 04:37:10;;;;;;;11.43;4.80;;;6.80;99.90;;;;;;5051334;28;20129;-61
2023/05/01 04:39:35;;;;;;;10.48;5.35;;;6.80;99.90;;;;;;5053373;28;20045;-61
2023/05/01 04:42:02;;;;;;;9.00;4.40;;;6.80;99.90;;;;;;5053193;28;20040;-61
2023/05/01 04:44:28;;;;;;;10.38;5.57;;;6.80;99.90;;;;;;5054819;28;20045;-61
2023/05/01 04:46:53;;;;;;;12.10;6.22;;;6.90;99.90;;;;;;5055267;28;20581;-61
2023/05/01 04:49:21;;;;;;;10.88;6.38;;;6.90;99.90;;;;;;5054108;28;20440;-61
2023/05/01 04:51:46;;;;;;;12.25;6.20;;;6.90;99.90;;;;;;5055221;28;20036;-61
2023/05/01 04:54:12;;;;;;;12.10;5.20;;;7.00;99.90;;;;;;5055353;28;20103;-61
2023/05/01 04:56:38;;;;;;;9.70;5.32;;;7.00;99.90;;;;;;5053763;28;20037;-61
2023/05/01 04:59:04;;;;;;;10.60;5.38;;;7.10;99.90;;;;;;5053739;28;20456;-61
2023/05/01 05:01:29;;;;;;;10.52;5.63;;;7.10;99.90;;;;;;5053430;28;20076;-61
2023/05/01 05:03:55;;;;;;;10.70;5.43;;;7.10;99.90;;;;;;5052892;28;20041;-61
2023/05/01 05:06:21;;;;;;;15.20;5.75;;;7.20;99.90;;;;;;5069734;28;20389;-61
2023/05/01 05:08:50;;;;;;;8.60;4.78;;;7.20;99.90;;;;;;5052899;28;20049;-61
2023/05/01 05:11:17;;;;;;;10.75;6.72;;;7.30;99.90;;;;;;5053971;28;20060;-61
2023/05/01 05:13:43;;;;;;;11.55;6.25;;;7.30;99.90;;;;;;5053457;28;20455;-61
2023/05/01 05:16:09;;;;;;;10.10;5.85;;;7.40;99.90;;;;;;5053984;28;20120;-61
2023/05/01 05:18:34;;;;;;;10.27;4.95;;;7.40;99.90;;;;;;5053956;28;20098;-61
2023/05/01 05:21:04;;;;;;;11.27;5.57;;;7.40;99.90;;;;;;5053692;28;20076;-61
2023/05/01 05:23:30;;;;;;;11.32;5.68;;;7.50;99.90;;;;;;5053476;28;20112;-61
2023/05/01 05:26:00;;;;;;;12.95;5.75;;;7.50;99.90;;;;;;5053249;28;20506;-61
2023/05/01 05:28:29;;;;;;;10.52;5.88;;;7.50;99.90;;;;;;5052971;28;20136;-61
2023/05/01 05:30:56;;;;;;;13.50;6.35;;;7.60;99.90;;;;;;5053599;28;20041;-61
2023/05/01 05:33:23;;;;;;;10.32;5.40;;;7.60;99.90;;;;;;5052817;28;20049;-61
2023/05/01 05:35:50;;;;;;;11.85;6.65;;;7.60;99.90;;;;;;5054600;28;20044;-61
2023/05/01 05:38:15;;;;;;;11.85;5.70;;;7.70;99.90;;;;;;5053015;28;20120;-61
2023/05/01 05:40:41;;;;;;;9.82;5.90;;;7.70;99.90;;;;;;5052735;28;20191;-61
2023/05/01 05:43:07;;;;;;;11.55;5.57;;;7.80;99.90;;;;;;5052962;28;20040;-61
2023/05/01 05:45:33;;;;;;;11.95;6.22;;;7.80;99.90;;;;;;5051782;28;20160;-61
2023/05/01 05:47:59;;;;;;;11.23;5.68;;;7.90;99.90;;;;;;5052872;28;20048;-61
2023/05/01 05:50:25;;;;;;;9.05;4.38;;;8.00;99.90;;;;;;5051851;28;20037;-61
2023/05/01 05:52:51;;;;;;;8.88;5.30;;;8.10;99.90;;;;;;5053117;28;20138;-61
2023/05/01 05:55:17;;;;;;;9.23;5.47;;;8.20;99.90;;;;;;5052263;28;20044;-61
2023/05/01 05:57:42;;;;;;;9.93;5.50;;;8.30;99.90;;;;;;5052471;28;20086;-61
2023/05/01 06:00:09;;;;;;;10.90;4.75;;;8.30;99.90;;;;;;5052241;28;20037;-61
2023/05/01 06:02:35;;;;;;;10.30;5.75;;;8.40;99.90;;;;;;5053061;28;20048;-61
2023/05/01 06:05:01;;;;;;;10.75;5.47;;;8.50;99.90;;;;;;5051779;28;20037;-61
2023/05/01 06:07:27;;;;;;;9.98;5.57;;;8.60;99.90;;;;;;5051687;28;20402;-61
2023/05/01 06:09:54;;;;;;;9.57;4.35;;;8.70;99.90;;;;;;5050753;28;20110;-61
2023/05/01 06:12:20;;;;;;;12.90;5.03;;;8.80;99.90;;;;;;5052208;28;20121;-61
2023/05/01 06:14:46;;;;;;;10.45;5.38;;;8.80;99.90;;;;;;5052299;28;20041;-61
2023/05/01 06:17:13;;;;;;;77.15;45.92;;;8.90;99.90;;;;;;5068844;28;20041;-61
2023/05/01 06:19:38;;;;;;;25.08;13.02;;;9.00;99.90;;;;;;5050887;28;20037;-61
2023/05/01 06:22:06;;;;;;;30.58;17.92;;;9.10;99.90;;;;;;5052449;28;20036;-61
2023/05/01 06:24:32;;;;;;;44.42;32.33;;;9.20;99.90;;;;;;5052651;28;20112;-61
2023/05/01 06:26:57;;;;;;;15.93;12.15;;;9.30;99.90;;;;;;5052698;28;20120;-61
2023/05/01 06:29:23;;;;;;;10.57;6.95;;;9.40;99.90;;;;;;5034497;28;20464;-61
2023/05/01 06:31:49;;;;;;;18.02;5.90;;;9.50;99.90;;;;;;5029475;28;20045;-61
2023/05/01 06:34:14;;;;;;;10.95;4.90;;;9.60;99.90;;;;;;5030020;28;20060;-61
2023/05/01 06:36:41;;;;;;;10.95;5.03;;;9.80;99.90;;;;;;5044687;28;20037;-61
2023/05/01 06:39:06;;;;;;;10.88;5.57;;;9.90;99.90;;;;;;5032762;28;20045;-61
2023/05/01 06:41:34;;;;;;;11.23;5.43;;;10.10;99.90;;;;;;5048019;28;20049;-61
2023/05/01 06:44:00;;;;;;;11.90;4.75;;;10.20;99.90;;;;;;5049325;28;20045;-61
2023/05/01 06:46:26;;;;;;;14.13;5.18;;;10.40;99.90;;;;;;5048723;28;20045;-61
2023/05/01 06:48:52;;;;;;;10.68;4.32;;;10.50;99.90;;;;;;5065375;28;20048;-61
2023/05/01 06:51:17;;;;;;;10.82;6.28;;;10.60;99.90;;;;;;5048503;28;20362;-61
2023/05/01 06:53:43;;;;;;;9.95;6.95;;;10.60;99.90;;;;;;5029523;28;20037;-61
2023/05/01 06:56:09;;;;;;;12.55;8.13;;;10.70;99.90;;;;;;5021189;28;20049;-61
2023/05/01 06:58:34;;;;;;;10.88;5.40;;;10.70;99.90;;;;;;5048116;28;20531;-61
2023/05/01 07:01:00;;;;;;;10.25;5.40;;;10.80;99.90;;;;;;5047728;28;20547;-61
2023/05/01 07:03:26;;;;;;;9.52;5.90;;;10.90;99.90;;;;;;5030382;28;20032;-61
2023/05/01 07:05:53;;;;;;;10.40;5.15;;;11.00;99.90;;;;;;5048916;28;20532;-61
2023/05/01 07:08:19;;;;;;;7.60;4.00;;;11.10;99.90;;;;;;5048355;28;20033;-61
2023/05/01 07:10:45;;;;;;;16.23;8.00;;;11.20;99.90;;;;;;5047929;28;20578;-62
2023/05/01 07:13:10;;;;;;;187.40;86.55;;;11.30;99.90;;;;;;5048007;28;20533;-61
2023/05/01 07:15:36;;;;;;;44.67;24.08;;;11.40;99.90;;;;;;5047449;28;20873;-61
2023/05/01 07:18:04;;;;;;;15.13;7.82;;;11.50;99.90;;;;;;5047684;28;20572;-61
2023/05/01 07:20:31;;;;;;;11.75;5.60;;;11.60;99.90;;;;;;5047435;28;20040;-61
2023/05/01 07:22:56;;;;;;;11.40;5.07;;;11.70;99.90;;;;;;5048343;28;20055;-61
2023/05/01 07:25:23;;;;;;;11.32;5.40;;;11.90;99.90;;;;;;5047348;28;20493;-61
2023/05/01 07:27:49;;;;;;;10.13;5.43;;;12.00;99.90;;;;;;5046927;28;20122;-61
2023/05/01 07:30:15;;;;;;;9.60;5.07;;;12.10;99.90;;;;;;5048156;28;20087;-61
2023/05/01 07:32:41;;;;;;;11.80;7.00;;;12.10;99.90;;;;;;5048804;28;20493;-61
2023/05/01 07:35:07;;;;;;;14.18;5.60;;;12.20;99.90;;;;;;5049203;28;20123;-61
2023/05/01 07:37:32;;;;;;;13.52;6.28;;;12.30;99.90;;;;;;5046910;28;20047;-61
2023/05/01 07:39:58;;;;;;;13.70;6.82;;;12.40;99.90;;;;;;5047498;28;20844;-61
2023/05/01 07:42:26;;;;;;;15.45;6.10;;;12.50;99.90;;;;;;5047248;28;20053;-61
2023/05/01 07:44:52;;;;;;;14.52;6.05;;;12.60;99.90;;;;;;5046780;28;20497;-60
2023/05/01 07:47:18;;;;;;;12.77;5.55;;;12.70;99.90;;;;;;5049072;28;20072;-61
2023/05/01 07:49:43;;;;;;;8.75;5.20;;;12.80;99.90;;;;;;5046036;28;20037;-62
2023/05/01 07:52:09;;;;;;;9.45;4.28;;;12.80;99.90;;;;;;5047347;28;20482;-61
2023/05/01 07:54:35;;;;;;;11.68;4.40;;;12.80;99.90;;;;;;5048848;28;20126;-62
2023/05/01 07:57:02;;;;;;;10.88;4.60;;;12.80;99.90;;;;;;5048714;28;20033;-62
2023/05/01 07:59:28;;;;;;;11.93;5.40;;;12.90;99.90;;;;;;5029473;28;20524;-63
2023/05/01 08:01:53;;;;;;;9.23;4.97;;;13.00;99.90;;;;;;5047849;28;20049;-62
2023/05/01 08:04:21;;;;;;;10.77;5.40;;;13.10;99.90;;;;;;5046989;28;20033;-64
2023/05/01 08:06:48;;;;;;;11.80;5.80;;;13.20;99.90;;;;;;5047566;28;20066;-63
2023/05/01 08:09:14;;;;;;;9.70;4.90;;;13.20;99.90;;;;;;5049487;28;20596;-66
2023/05/01 08:11:40;;;;;;;11.82;5.47;;;13.30;99.90;;;;;;5048376;28;20053;-62
2023/05/01 08:14:05;;;;;;;11.98;4.38;;;13.30;99.90;;;;;;5052409;28;20044;-62
2023/05/01 08:16:33;;;;;;;8.40;4.72;;;13.40;99.90;;;;;;5051577;28;20484;-62
2023/05/01 08:18:58;;;;;;;10.20;4.45;;;13.40;99.90;;;;;;5048248;28;20041;-62
2023/05/01 08:21:25;;;;;;;13.00;5.65;;;13.40;99.90;;;;;;5051304;28;20155;-62
2023/05/01 08:23:52;;;;;;;8.88;4.40;;;13.50;99.90;;;;;;5051635;28;20033;-62
2023/05/01 08:26:18;;;;;;;8.35;5.07;;;13.60;99.90;;;;;;5034082;28;20045;-62
2023/05/01 08:28:43;;;;;;;8.13;4.70;;;13.70;99.90;;;;;;5050355;28;20045;-63
2023/05/01 08:31:09;;;;;;;8.43;4.35;;;13.80;99.90;;;;;;5051291;28;20463;-62
2023/05/01 08:33:35;;;;;;;8.20;4.05;;;13.90;99.90;;;;;;5033450;28;20049;-62
2023/05/01 08:36:10;;;;;;;10.55;4.65;;;13.90;99.90;;;;;;5052701;28;20500;-61
2023/05/01 08:38:36;;;;;;;8.07;3.88;;;14.00;99.90;;;;;;5051760;28;20132;-62
2023/05/01 08:41:02;;;;;;;6.50;3.58;;;14.10;99.90;;;;;;5050420;28;20378;-63
2023/05/01 08:43:31;;;;;;;10.75;5.20;;;14.20;99.90;;;;;;5050638;28;20052;-59
2023/05/01 08:46:03;;;;;;;7.53;3.88;;;14.30;99.90;;;;;;5051504;28;20076;-60
2023/05/01 08:48:31;;;;;;;11.00;3.95;;;14.40;99.90;;;;;;5052365;28;20125;-60
2023/05/01 08:50:59;;;;;;;8.88;4.10;;;14.50;99.90;;;;;;5037988;28;20041;-60
2023/05/01 08:53:25;;;;;;;7.80;2.90;;;14.50;99.90;;;;;;5033520;28;20065;-69
2023/05/01 08:55:55;;;;;;;7.55;3.15;;;14.60;99.90;;;;;;5033509;28;20033;-70
2023/05/01 08:58:23;;;;;;;9.00;3.08;;;14.60;99.90;;;;;;5021709;28;20043;-71
2023/05/01 09:00:49;;;;;;;6.10;3.53;;;14.60;99.90;;;;;;5053660;28;20500;-69
2023/05/01 09:03:16;;;;;;;8.38;4.00;;;14.70;99.90;;;;;;5036246;28;20037;-65
2023/05/01 09:05:42;;;;;;;8.43;2.78;;;14.60;99.40;;;;;;5053439;28;20041;-64
2023/05/01 09:08:08;;;;;;;7.50;3.15;;;14.70;99.40;;;;;;5052900;28;20122;-63
2023/05/01 09:10:41;;;;;;;8.50;3.25;;;14.80;98.90;;;;;;5052571;28;20065;-70
2023/05/01 09:13:08;;;;;;;8.13;3.53;;;14.80;98.60;;;;;;5036310;28;20513;-70
2023/05/01 09:15:34;;;;;;;7.00;3.58;;;14.90;98.60;;;;;;5053047;28;20036;-70
2023/05/01 09:18:01;;;;;;;8.88;3.45;;;15.00;98.70;;;;;;5036344;28;20474;-69
2023/05/01 09:20:27;;;;;;;7.43;3.15;;;15.10;98.00;;;;;;5053694;28;20041;-70
2023/05/01 09:22:55;;;;;;;6.22;3.10;;;15.20;98.10;;;;;;5052958;28;20090;-70
2023/05/01 09:25:21;;;;;;;11.38;3.70;;;15.20;98.00;;;;;;5052832;28;20037;-70
2023/05/01 09:27:47;;;;;;;6.72;3.45;;;15.30;97.80;;;;;;5052877;28;20486;-69
2023/05/01 09:30:29;;;;;;;7.45;3.65;;;15.40;97.50;;;;;;5053448;28;20520;-70
2023/05/01 09:33:08;;;;;;;7.07;3.72;;;15.40;97.30;;;;;;5035630;28;20076;-69
2023/05/01 09:35:54;;;;;;;9.35;4.38;;;15.40;97.80;;;;;;5035385;28;20045;-70
2023/05/01 09:38:22;;;;;;;8.00;3.40;;;15.40;97.70;;;;;;5052090;28;20422;-71
2023/05/01 09:40:48;;;;;;;6.72;3.00;;;15.50;98.20;;;;;;5053968;28;20419;-72
2023/05/01 09:43:24;;;;;;;9.88;3.78;;;15.50;98.30;;;;;;5052190;28;20045;-71
2023/05/01 09:46:21;;;;;;;6.18;3.60;;;15.60;98.20;;;;;;5052596;28;20048;-65
2023/05/01 09:48:56;;;;;;;6.63;2.83;;;15.70;98.10;;;;;;5032877;28;20056;-68
2023/05/01 09:51:32;;;;;;;8.48;3.22;;;15.80;97.90;;;;;;5051857;28;20045;-68
2023/05/01 09:54:18;;;;;;;10.93;3.13;;;15.80;96.70;;;;;;5053046;28;20546;-68
2023/05/01 09:56:47;;;;;;;6.60;2.90;;;15.90;97.50;;;;;;5048710;28;20037;-64
2023/05/01 09:59:16;;;;;;;7.45;3.20;;;16.00;97.20;;;;;;5052006;28;20393;-68
2023/05/01 10:01:45;;;;;;;8.95;3.45;;;16.00;97.30;;;;;;5050963;28;20482;-76
2023/05/01 10:04:11;;;;;;;7.40;2.83;;;16.10;96.80;;;;;;5051742;28;20029;-70
2023/05/01 10:06:38;;;;;;;8.43;3.42;;;16.00;96.50;;;;;;5052193;28;20098;-69
2023/05/01 10:09:06;;;;;;;6.40;3.40;;;16.10;96.90;;;;;;5053872;28;20052;-69
2023/05/01 10:11:52;;;;;;;7.38;3.45;;;16.20;96.50;;;;;;5050789;28;20060;-69
2023/05/01 10:14:19;;;;;;;6.57;3.15;;;16.30;97.10;;;;;;5035652;28;20056;-68
2023/05/01 10:16:45;;;;;;;5.05;2.45;;;16.30;96.40;;;;;;5052035;28;20053;-68
2023/05/01 10:19:12;;;;;;;9.73;3.33;;;16.30;96.50;;;;;;5052922;28;20048;-68
2023/05/01 10:21:37;;;;;;;7.47;3.15;;;16.40;96.10;;;;;;5051894;28;20103;-69
2023/05/01 10:24:04;;;;;;;9.70;2.88;;;16.40;96.30;;;;;;5052286;28;20036;-69
2023/05/01 10:26:33;;;;;;;7.80;3.05;;;16.60;97.00;;;;;;5034095;28;20129;-69
2023/05/01 10:29:00;;;;;;;8.25;4.13;;;16.70;97.10;;;;;;5035226;28;20088;-69
2023/05/01 10:31:26;;;;;;;6.78;3.67;;;16.80;96.80;;;;;;5052701;28;20112;-68
2023/05/01 10:33:54;;;;;;;5.40;2.92;;;16.80;96.90;;;;;;5068179;28;20041;-66
2023/05/01 10:36:27;;;;;;;7.70;2.75;;;16.90;96.80;;;;;;5050402;28;20116;-66
2023/05/01 10:38:53;;;;;;;4.43;1.90;;;16.80;96.40;;;;;;5053168;28;20043;-66
2023/05/01 10:41:53;;;;;;;7.60;2.67;;;16.80;96.00;;;;;;5034271;28;20127;-66
2023/05/01 10:44:20;;;;;;;6.32;2.75;;;16.90;95.50;;;;;;5051629;28;20442;-69
2023/05/01 10:46:46;;;;;;;5.82;2.35;;;17.00;95.80;;;;;;5034493;28;20033;-67
2023/05/01 10:49:12;;;;;;;5.95;2.13;;;17.10;94.40;;;;;;5051747;28;20052;-66
2023/05/01 10:51:57;;;;;;;6.07;2.92;;;17.00;94.10;;;;;;5051096;28;20057;-66
2023/05/01 10:54:25;;;;;;;7.65;2.90;;;17.10;94.50;;;;;;5050744;28;20102;-66
2023/05/01 10:56:55;;;;;;;6.85;3.22;;;17.10;94.70;;;;;;5051516;28;20045;-67
2023/05/01 10:59:21;;;;;;;6.85;2.50;;;17.10;95.00;;;;;;5052201;28;20044;-67
2023/05/01 11:01:50;;;;;;;9.38;2.90;;;17.10;95.20;;;;;;5052150;28;20045;-67
2023/05/01 11:04:18;;;;;;;6.60;2.42;;;17.10;95.10;;;;;;5052554;28;20041;-67
2023/05/01 11:07:12;;;;;;;6.70;2.88;;;17.10;95.00;;;;;;5051066;28;20046;-67
2023/05/01 11:09:50;;;;;;;7.95;4.00;;;17.10;95.70;;;;;;5051474;28;20101;-67
2023/05/01 11:12:46;;;;;;;5.75;2.33;;;17.00;95.60;;;;;;5052320;28;20041;-67
2023/05/01 11:15:25;;;;;;;5.00;2.13;;;17.00;95.40;;;;;;5050395;28;20040;-67
2023/05/01 11:17:51;;;;;;;5.90;2.33;;;17.00;95.10;;;;;;5051445;28;20068;-67
2023/05/01 11:20:25;;;;;;;7.30;2.45;;;17.00;95.30;;;;;;5067636;28;20389;-67
2023/05/01 11:22:53;;;;;;;5.85;2.85;;;17.00;94.80;;;;;;5051616;28;20068;-67
2023/05/01 11:25:22;;;;;;;5.82;2.35;;;17.00;94.90;;;;;;5051961;28;20108;-67
2023/05/01 11:27:50;;;;;;;6.32;2.67;;;17.00;94.90;;;;;;5051386;28;20041;-67
2023/05/01 11:30:16;;;;;;;8.52;2.80;;;17.00;94.80;;;;;;5051268;28;20448;-67
2023/05/01 11:32:46;;;;;;;7.78;3.25;;;16.90;95.20;;;;;;5050817;28;20045;-69
2023/05/01 11:35:22;;;;;;;8.32;2.97;;;16.90;94.90;;;;;;5052347;28;20033;-69
2023/05/01 11:37:54;;;;;;;7.38;2.75;;;16.90;95.10;;;;;;5033561;28;20048;-69
2023/05/01 11:40:27;;;;;;;5.20;2.35;;;16.90;95.60;;;;;;5050406;28;20044;-69
2023/05/01 11:43:19;;;;;;;7.65;2.88;;;17.00;96.10;;;;;;5050042;28;20585;-69
2023/05/01 11:45:53;;;;;;;6.28;2.80;;;17.20;96.60;;;;;;5049626;28;20067;-67
2023/05/01 11:48:20;;;;;;;12.07;3.45;;;17.30;96.00;;;;;;5050095;28;20486;-69
2023/05/01 11:50:45;;;;;;;4.68;2.50;;;17.30;95.70;;;;;;5050262;28;20044;-70
2023/05/01 11:53:16;;;;;;;7.25;2.65;;;17.10;94.60;;;;;;5050829;28;20068;-69
2023/05/01 11:55:43;;;;;;;6.43;2.45;;;17.00;94.70;;;;;;5050686;28;20041;-70
2023/05/01 11:58:09;;;;;;;5.85;2.45;;;16.90;95.00;;;;;;5051120;28;20052;-70
2023/05/01 12:00:43;;;;;;;6.30;3.17;;;17.10;95.90;;;;;;5051272;28;20043;-68
2023/05/01 12:03:11;;;;;;;6.68;3.45;;;17.20;95.40;;;;;;5052184;28;20116;-70
2023/05/01 12:05:39;;;;;;;7.00;3.20;;;17.10;95.10;;;;;;5032616;28;20069;-71
2023/05/01 12:08:06;;;;;;;8.15;3.10;;;17.00;95.00;;;;;;5050639;28;20045;-72
2023/05/01 12:10:32;;;;;;;6.50;2.90;;;16.90;95.30;;;;;;5049655;28;20109;-72
2023/05/01 12:12:58;;;;;;;6.38;3.65;;;16.80;95.90;;;;;;5049712;28;20524;-72
2023/05/01 12:15:24;;;;;;;7.88;3.30;;;16.70;96.10;;;;;;5051114;28;20053;-66
2023/05/01 12:17:51;;;;;;;6.97;3.85;;;16.70;96.00;;;;;;5051282;28;20033;-63
2023/05/01 12:20:17;;;;;;;9.27;3.78;;;16.50;95.50;;;;;;5050327;28;20040;-62
2023/05/01 12:22:49;;;;;;;6.82;3.10;;;16.40;95.50;;;;;;5033557;28;20044;-62
2023/05/01 12:25:16;;;;;;;8.07;3.65;;;16.20;95.70;;;;;;5049686;28;20041;-62
2023/05/01 12:27:43;;;;;;;9.80;3.40;;;16.10;96.20;;;;;;5033599;28;20048;-62
2023/05/01 12:30:09;;;;;;;7.45;2.90;;;16.10;97.00;;;;;;5067442;28;20048;-61
2023/05/01 12:32:34;;;;;;;9.65;3.28;;;16.10;96.90;;;;;;5049092;28;20094;-62
2023/05/01 12:35:10;;;;;;;5.97;3.20;;;16.10;96.90;;;;;;5051846;28;20045;-62
2023/05/01 12:37:37;;;;;;;7.88;3.88;;;16.00;96.70;;;;;;5049949;28;20402;-62
2023/05/01 12:40:04;;;;;;;8.90;3.83;;;15.90;97.50;;;;;;5049527;28;20098;-61
2023/05/01 12:42:30;;;;;;;7.45;4.03;;;15.80;98.10;;;;;;5050846;28;20099;-61
2023/05/01 12:45:00;;;;;;;8.93;3.88;;;15.70;98.10;;;;;;5050245;28;20037;-61
2023/05/01 12:47:26;;;;;;;8.63;4.43;;;15.70;98.10;;;;;;5049141;28;20382;-61
2023/05/01 12:50:01;;;;;;;7.43;4.05;;;15.60;98.70;;;;;;5051482;28;20041;-62
2023/05/01 12:52:32;;;;;;;8.68;4.20;;;15.60;99.90;;;;;;5050054;28;20037;-61